Latest Coastal Weather Observations for Williamtown

IDN60701

Issued at 8:01 am EST Friday 29 April 2016 (issued every 10 minutes, with the page automatically refreshed every 10 minutes)

About coastal observations | Map of coastal stations | Coastal observations for NSW | Marine services | Other Formats
Station Details ID: 061078 Name: WILLIAMTOWN RAAF Lat: -32.79 Lon: 151.84 Height: 9.0 m
Data from the previous 72 hours. | See also: Recent months at Williamtown
Date/Time
EST
Temp

°C
Wind Pressure Rain
since 9am
mm
Weather Cloud Vis
km
Sea
Height
m
Swell
Dir
 
Speed
knots
Gust
knots
hPa Trend Height
m
Period
s
Dir
29/07:30am 15.8 NW 2 3 1023.1 - 0.0 - Mostly clear 10 - - - -
29/07:00am 14.5 NW 4 5 1022.9 - 0.0 - - 10 - - - -
29/06:41am 14.0 WNW 4 5 1022.9 - 0.0 - - 5 - - - -
29/06:30am 14.0 WNW 3 3 1022.7 - 0.0 - - 10 - - - -
29/06:00am 14.3 NNE 4 4 1022.4 F 0.0 - - 10 - - - -
29/05:30am 14.6 N 4 5 1022.3 - 0.0 - - 10 - - - -
29/05:00am 15.3 NNE 4 5 1022.2 - 0.0 - - 10 - - - -
29/04:30am 14.6 WNW 1 5 1022.1 - 0.0 - - 10 - - - -
29/04:00am 15.6 NE 3 4 1021.9 - 0.0 - - 10 - - - -
29/03:44am 15.0 WNW 1 3 1022.0 - 0.0 - - 10 - - - -
29/03:30am 14.7 W 4 4 1022.2 - 0.0 - - 6 - - - -
29/03:28am 14.5 W 3 4 1022.1 - 0.0 - - 6 - - - -
29/03:00am 15.9 NNW 4 4 1022.0 R 0.0 - - 10 - - - -
29/02:30am 17.3 NNE 5 6 1022.1 - 0.0 - - 10 - - - -
29/02:00am 17.6 NE 6 8 1021.9 - 0.0 - - 10 - - - -
29/01:30am 17.3 NE 4 5 1022.6 - 0.0 - - 10 - - - -
29/01:00am 17.1 NNE 4 5 1022.9 - 0.0 - - 10 - - - -
29/12:30am 16.7 NNE 2 4 1022.8 - 0.0 - - 10 - - - -
29/12:00am 17.9 NE 5 6 1022.8 R 0.0 - Cloudy 10 - - - -
 
Date/Time
EST
Temp

°C
Wind Pressure Rain
since 9am
mm
Weather Cloud Vis
km
Sea
Height
m
Swell
Dir
 
Speed
knots
Gust
knots
hPa Trend Height
m
Period
s
Dir
28/11:30pm 18.2 NE 5 6 1022.8 - 0.0 - - 10 - - - -
28/11:00pm 17.9 NE 5 7 1023.1 - 0.0 - - 10 - - - -
28/10:30pm 17.6 NE 4 5 1023.3 - 0.0 - - 10 - - - -
28/10:00pm 18.3 NE 6 7 1023.3 - 0.0 - - 10 - - - -
28/09:30pm 18.4 NE 5 6 1023.3 - 0.0 - - 10 - - - -
28/09:00pm 18.6 NE 6 7 1023.2 F 0.0 - - 10 - - - -
28/08:30pm 18.9 ENE 7 9 1023.2 - 0.0 - - 10 - - - -
28/08:00pm 19.2 NE 5 7 1023.2 - 0.0 - - 10 - - - -
28/07:30pm 19.0 NE 6 7 1023.1 - 0.0 - - 10 - - - -
28/07:00pm 19.0 NE 5 6 1023.0 - 0.0 - - 10 - - - -
28/06:30pm 19.7 NE 4 5 1022.9 - 0.0 - - 10 - - - -
28/06:00pm 20.7 NE 4 5 1022.6 F 0.0 - - 10 - - - -
28/05:30pm 21.8 ENE 6 7 1022.3 - 0.0 - - 10 - - - -
28/05:00pm 23.1 ENE 5 7 1022.0 - 0.0 - Mostly clear 10 - - - -
28/04:30pm 24.2 ENE 6 8 1021.8 - 0.0 - Mostly clear 10 - - - -
28/04:00pm 25.2 NE 6 9 1021.8 - 0.0 - Mostly clear 10 - - - -
28/03:30pm 25.2 NE 6 8 1021.8 - 0.0 - Mostly clear 10 - - - -
28/03:00pm 25.8 E 5 7 1021.9 R 0.0 - Mostly clear 10 - - - -
28/02:30pm 25.7 N 5 6 1021.9 - 0.0 - Mostly clear 10 - - - -
28/02:00pm 26.0 NE 4 6 1022.1 - 0.0 - Mostly clear 10 - - - -
28/01:30pm 25.7 NW 4 5 1022.3 - 0.0 - Mostly clear 10 - - - -
28/01:00pm 24.8 N 5 8 1022.5 - 0.0 - Mostly clear 10 - - - -
28/12:30pm 25.2 N 6 8 1022.8 - 0.0 - Mostly clear 10 - - - -
28/12:00pm 24.9 NNE 6 8 1023.2 F 0.0 - Mostly clear 10 - - - -
28/11:30am 22.9 NNE 6 9 1023.9 - 0.0 - Mostly clear 10 - - - -
28/11:00am 21.7 N 6 8 1024.6 - 0.0 - Mostly clear 10 - - - -
28/10:30am 20.7 NW 6 9 1024.9 - 0.0 - Mostly clear 10 - - - -
28/10:00am 19.5 NW 7 8 1025.3 - 0.0 - Mostly clear 10 - - - -
28/09:30am 18.3 NNW 5 6 1025.6 - 0.0 - Mostly clear 10 - - - -
28/09:00am 17.0 NW 7 9 1025.6 R 0.0 - Mostly clear 10 - - - -
28/08:30am 17.3 NNW 7 8 1025.6 - 0.0 - Mostly clear 10 - - - -
28/08:00am 15.5 NW 6 9 1025.4 - 0.0 - Mostly clear 10 - - - -
28/07:30am 14.4 WNW 5 6 1025.1 - 0.0 Fog patches Mostly clear 10 - - - -
28/07:11am 14.3 WNW 3 5 1024.7 - 0.0 Fog patches Mostly clear 10 - - - -
28/07:02am 13.9 CALM 0 0 1024.5 - 0.0 Fog patches Mostly clear 7 - - - -
28/07:00am 13.8 CALM 0 0 1024.5 - 0.0 - Partly cloudy 5 - - - -
28/06:58am 13.7 CALM 0 0 1024.4 - 0.0 - Partly cloudy 3 - - - -
28/06:41am 13.1 CALM 0 3 1024.4 - 0.0 - Partly cloudy 2 - - - -
28/06:36am 13.2 N 2 4 1024.3 - 0.0 - Partly cloudy 3 - - - -
28/06:30am 13.2 NNW 4 6 1024.2 - 0.0 - Partly cloudy 3 - - - -
28/06:16am 13.2 NW 6 6 1024.0 - 0.0 - Partly cloudy 2 - - - -
28/06:00am 13.1 NW 6 7 1023.9 R 0.0 - Mostly clear 2 - - - -
28/05:58am 13.2 NW 6 7 1023.9 - 0.0 - Partly cloudy 4 - - - -
28/05:30am 13.4 NW 4 5 1023.7 - 0.0 - - 10 - - - -
28/05:00am 13.2 NNW 3 4 1023.3 - 0.0 - - 10 - - - -
28/04:30am 12.5 NW 4 4 1022.9 - 0.0 - - 10 - - - -
28/04:00am 13.0 NW 5 5 1023.0 - 0.0 - - 10 - - - -
28/03:30am 12.9 WNW 5 6 1022.7 - 0.0 - - 10 - - - -
28/03:00am 14.3 NE 5 6 1022.7 F 0.0 - - 10 - - - -
28/02:30am 14.4 ENE 5 5 1023.0 - 0.0 - - 10 - - - -
28/02:00am 14.3 CALM 0 0 1023.4 - 0.0 - - 10 - - - -
28/01:30am 14.7 NNW 4 5 1023.5 - 0.0 - - 10 - - - -
28/01:00am 16.4 NE 5 6 1023.6 - 0.0 - - 10 - - - -
28/12:30am 16.7 NE 7 8 1023.7 - 0.0 - - 10 - - - -
28/12:00am 16.9 ENE 6 7 1024.0 F 0.0 - - 10 - - - -
 
Date/Time
EST
Temp

°C
Wind Pressure Rain
since 9am
mm
Weather Cloud Vis
km
Sea
Height
m
Swell
Dir
 
Speed
knots
Gust
knots
hPa Trend Height
m
Period
s
Dir
27/11:30pm 17.4 ENE 6 8 1024.1 - 0.0 - - 10 - - - -
27/11:00pm 16.6 NW 5 6 1024.2 - 0.0 - - 10 - - - -
27/10:30pm 17.4 NNE 4 5 1024.4 - 0.0 - - 10 - - - -
27/10:00pm 17.7 NE 7 9 1024.5 - 0.0 - - 10 - - - -
27/09:30pm 17.5 ENE 8 10 1024.8 - 0.0 - - 10 - - - -
27/09:00pm 16.7 NE 5 7 1025.2 S 0.0 - - 10 - - - -
27/08:30pm 17.4 NNE 4 5 1025.2 - 0.0 - - 10 - - - -
27/08:00pm 17.8 NE 5 5 1024.9 - 0.0 - - 10 - - - -
27/07:30pm 18.1 NE 5 6 1024.8 - 0.0 - - 10 - - - -
27/07:00pm 18.5 ENE 7 9 1024.6 - 0.0 - - 10 - - - -
27/06:30pm 18.7 ENE 5 7 1024.6 - 0.0 - Mostly clear 10 - - - -
27/06:00pm 19.0 SE 4 5 1024.4 F 0.0 - Mostly clear 10 - - - -
27/05:30pm 19.8 ESE 4 6 1024.1 - 0.0 - Mostly clear 10 - - - -
27/05:00pm 20.7 ESE 7 8 1024.0 - 0.0 - Mostly clear 10 - - - -
27/04:30pm 21.3 ESE 9 12 1023.8 - 0.0 - Mostly clear 10 - - - -
27/04:00pm 21.4 ESE 7 9 1023.8 - 0.0 - Mostly clear 10 - - - -
27/03:30pm 20.8 SE 10 12 1023.9 - 0.0 - Mostly clear 10 - - - -
27/03:00pm 22.3 ESE 6 8 1024.0 F 0.0 Distant precip. Partly cloudy 30 - - - -
27/02:30pm 22.0 ENE 4 7 1024.0 - 0.0 - Partly cloudy 10 - - - -
27/02:00pm 21.4 ENE 5 8 1024.3 - 0.0 - Partly cloudy 10 - - - -
27/01:30pm 20.7 E 10 14 1024.7 - 0.0 - Partly cloudy 10 - - - -
27/01:00pm 21.9 E 7 11 1024.8 - 0.0 - Partly cloudy 10 - - - -
27/12:30pm 22.5 NNE 5 8 1025.2 - 0.0 - Partly cloudy 10 - - - -
27/12:00pm 22.3 WNW 5 7 1025.8 F 0.0 - Partly cloudy 10 - - - -
27/11:30am 21.3 NW 5 7 1026.5 - 0.0 - Mostly cloudy 10 - - - -
27/11:00am 20.6 N 5 7 1027.2 - 0.0 - Partly cloudy 10 - - - -
27/10:30am 19.3 WNW 6 7 1027.4 - 0.0 - Mostly clear 10 - - - -
27/10:00am 18.6 NW 6 8 1027.6 - 0.0 - Mostly clear 10 - - - -
27/09:30am 16.9 NW 8 9 1027.8 - 0.0 - Mostly clear 10 - - - -
27/09:00am 16.3 NW 7 8 1027.9 F 0.0 Fine Mostly cloudy 35 - - - -
27/08:30am 15.6 NW 6 7 1028.0 - 0.0 - Mostly clear 10 - - - -
27/08:00am 14.5 NW 4 5 1027.7 - 0.0 - Mostly clear 10 - - - -
27/07:30am 12.5 WNW 4 4 1027.5 - 0.0 - Mostly clear 10 - - - -
27/07:00am 11.6 WNW 4 5 1027.2 - 0.0 - Mostly clear 10 - - - -
27/06:30am 11.1 WNW 6 7 1027.1 - 0.0 - Mostly clear 10 - - - -
27/06:00am 11.1 NW 5 5 1027.1 F 0.0 Shallow fog Mostly clear 25 - - - -
27/05:30am 10.8 WNW 5 5 1026.9 - 0.0 - - 10 - - - -
27/05:00am 10.1 CALM 0 0 1026.8 - 0.0 - - 10 - - - -
27/04:41am 10.7 CALM 0 0 1026.7 - 0.0 - - 4 - - - -
27/04:30am 10.9 CALM 0 0 1026.7 - 0.0 - - 10 - - - -
27/04:00am 10.7 CALM 0 0 1026.6 - 0.0 - - 10 - - - -
27/03:30am 11.5 NW 4 4 1026.6 - 0.0 - - 10 - - - -
27/03:00am 11.6 NW 4 4 1026.7 F 0.0 - - 10 - - - -
27/02:30am 11.6 NW 5 5 1027.0 - 0.0 - - 10 - - - -
27/02:00am 12.0 NW 4 4 1027.2 - 0.0 - - 10 - - - -
27/01:30am 12.0 NW 3 4 1027.5 - 0.0 - - 10 - - - -
27/01:00am 12.4 NW 3 4 1027.7 - 0.0 - Partly cloudy 10 - - - -
27/12:30am 12.9 CALM 0 0 1027.8 - 0.0 - Partly cloudy 10 - - - -
27/12:00am 12.9 WNW 1 4 1027.8 S 0.0 - Partly cloudy 10 - - - -
 
Date/Time
EST
Temp

°C
Wind Pressure Rain
since 9am
mm
Weather Cloud Vis
km
Sea
Height
m
Swell
Dir
 
Speed
knots
Gust
knots
hPa Trend Height
m
Period
s
Dir
26/11:30pm 13.0 CALM 0 0 1027.9 - 0.0 - - 10 - - - -
26/11:00pm 13.1 CALM 0 0 1028.2 - 0.0 - - 10 - - - -
26/10:30pm 13.3 CALM 0 0 1028.3 - 0.0 - - 10 - - - -
26/10:00pm 14.0 NNE 4 4 1028.4 - 0.0 - - 10 - - - -
26/09:30pm 14.4 CALM 0 0 1028.5 - 0.0 - - 10 - - - -
26/09:00pm 15.3 ENE 4 5 1028.5 R 0.0 - - 10 - - - -
26/08:30pm 15.3 NE 4 5 1028.5 - 0.0 - - 10 - - - -
26/08:00pm 16.4 NE 4 5 1028.3 - 0.0 - - 10 - - - -
26/07:30pm 17.3 ENE 5 5 1028.3 - 0.0 - - 10 - - - -
26/07:00pm 17.6 ENE 4 5 1028.1 - 0.0 - - 10 - - - -
26/06:30pm 18.6 ENE 5 6 1027.8 - 0.0 - Mostly clear 10 - - - -
26/06:00pm 20.0 E 6 7 1027.6 F 0.0 - Mostly clear 10 - - - -
26/05:30pm 20.2 ESE 6 7 1027.4 - 0.0 - Mostly clear 10 - - - -
26/05:00pm 21.1 E 6 8 1027.2 - 0.0 - Mostly clear 10 - - - -
26/04:30pm 21.7 ESE 8 10 1027.2 - 0.0 - Mostly clear 10 - - - -
26/04:00pm 22.1 SE 9 13 1027.2 - 0.0 - Mostly clear 10 - - - -
26/03:30pm 22.2 SE 11 14 1027.1 - 0.0 - Mostly clear 10 - - - -
26/03:00pm 22.5 SE 10 14 1027.1 F 0.0 Fine Mostly clear 40 - - - -
26/02:30pm 22.1 ESE 12 17 1027.2 - 0.0 - Mostly clear 10 - - - -
26/02:00pm 22.0 ESE 10 15 1027.3 - 0.0 - Partly cloudy 10 - - - -
26/01:30pm 22.0 ESE 8 12 1027.5 - 0.0 - Mostly clear 10 - - - -
26/01:00pm 22.1 ESE 10 14 1027.7 - 0.0 - Partly cloudy 10 - - - -
26/12:30pm 21.8 SE 9 14 1028.1 - 0.0 - Partly cloudy 10 - - - -
26/12:00pm 22.5 ESE 9 14 1028.6 F 0.0 Fine Mostly cloudy 40 - - - -
26/11:30am 22.6 ESE 8 14 1029.1 - 0.0 - Mostly clear 10 - - - -
26/11:00am 22.0 SE 6 9 1029.5 - 0.0 - Mostly clear 10 - - - -
26/10:30am 21.9 SSW 5 7 1029.7 - 0.0 - Mostly clear 10 - - - -
26/10:00am 20.9 SSW 6 9 1029.8 - 0.0 - Mostly clear 10 - - - -
26/09:30am 19.9 WSW 4 6 1030.0 - 0.0 - Mostly clear 10 - - - -
26/09:00am 19.0 NW 5 6 1030.2 F 0.0 Fine Partly cloudy 30 - - - -
26/08:30am 17.7 NW 5 7 1030.3 - 0.0 - Mostly clear 10 - - - -

Other Formats:

Comma delimited format used in spreadsheet applications
http://www.bom.gov.au/fwo/IDN60701/IDN60701.94776.axf

JavaScript Object Notation format (JSON) in row-major order
http://www.bom.gov.au/fwo/IDN60701/IDN60701.94776.json